Dry Tortugas National Park, FL

2:51 PM EDT on September 30, 2016 (GMT -0400)
Key West Naval Air Station | | Change Station

Elev 7 ft 24.58 °N, 81.69 °W | Updated 58 minutes ago

Scattered Clouds
Scattered Clouds
89 °F
Feels Like 99 °F
N
8
Wind Variable Wind from ESE

Today
High -- | Low -- °F
--% Chance of Precip.
Yesterday
High -- | Low -- °F
Precip. -- in
Pressure 30.00 in
Visibility 10.0 miles
Clouds Scattered Clouds 2500 ft
Scattered Clouds 22000 ft
Heat Index 99 °F
Dew Point 75 °F
Humidity 63%
Rainfall 0.00 in
Snow Depth Not available.
7:18 AM 7:13 PM
Waning Crescent, 0% visible
METAR KNQX 301753Z 12007KT 10SM SCT025 SCT220 32/24 A3001 RMK AO2 SLP159 T03170239 10322 20272 58014 $
Pressure 30.00 in
Visibility 10.0 miles
Clouds Scattered Clouds 2500 ft
Scattered Clouds 22000 ft
Heat Index 99 °F
Dew Point 75 °F
Humidity 63%
Rainfall 0.00 in
Snow Depth Not available.
7:18 AM 7:13 PM
Waning Crescent, 0% visible
METAR KNQX 301753Z 12007KT 10SM SCT025 SCT220 32/24 A3001 RMK AO2 SLP159 T03170239 10322 20272 58014 $

10-Day Weather Forecast

Almanac

Astronomy

Sep. 30, 2016 Rise Set
Actual Time
Civil Twilight
Nautical Twilight
Astronomical Twilight
Moon
Length of Visible Light
Length of Day
Tomorrow will be .
, % of the Moon is Illuminated

Today's Extremes

State Highs State Lows

Community

WunderPhotos

Upload Photos

1,942,755 photos uploaded!

WunderBlog® & News

Nearby

Air Quality

  Air Quality AQ Index Pollutant
Not available.

Snow Depth

Station Depth Elevation

Earthquake Activity

City Distance Mag. Time & Date
Minimum magnitude displayed is 2.5.

Coastal Water Temperatures

Place Temperature

Stations

Nearby Weather Stations

Station Location Temp. Windchill Dew Point Humidity Wind Precip. Elev Updated Type
                   

Watches & Warnings

There are currently no watches in effect.